Belize, Belize

5:06 AM CST on February 01, 2015 (GMT -0600)
Astrum Helicopters - Cisco Base | Change Station
CLOSE
Current Station
Personal Weather Station
Location: Belize City, BZ
Elevation: 3 ft
Nearby Weather Stations

Elev 3 ft 17.50 °N, 88.23 °W | Updated 6 seconds ago

Partly Cloudy
Partly Cloudy
68.5 °F
Feels Like 68.5 °F
N
0.0
Wind Variable Wind from West
Gusts 0.0 mph

Today
High -- | Low -- °F
--% Chance of Precip.
Yesterday
High -- | Low -- °F
Precip. -- in
6:25 AM 5:48 PM
Waxing Gibbous, 94% visible
Pressure 29.98 in
Visibility 6.2 miles
Clouds Few 4500 ft
Dew Point 67 °F
Humidity 96%
Rainfall 0.06 in
Snow Depth Not available.
UV 0 out of 12
Pollen Not available.
Air Quality Not available.
Flu Activity Not available.
METAR MZBZ 011100Z 00000KT 9999 FEW045 21/20 A2998 Q1015 NOSIG

More Conditions Fewer Conditions

Pressure 29.98 in
Visibility 6.2 miles
Clouds Few 4500 ft
Dew Point 67 °F
Humidity 96%
Rainfall 0.06 in
Snow Depth Not available.
UV 0 out of 12
Pollen Not available.
Air Quality Not available.
Flu Activity Not available.
METAR MZBZ 011100Z 00000KT 9999 FEW045 21/20 A2998 Q1015 NOSIG

More Conditions Fewer Conditions

10-Day Weather Forecast

Almanac

Astronomy

Feb. 01, 2015 Rise Set
Actual Time
Civil Twilight
Nautical Twilight
Astronomical Twilight
Moon
Length of Visible Light
Length of Day
Tomorrow will be .
, % of the Moon is Illuminated

Today's Extremes

Country Highs Country Lows

Community

WunderPhotos

Upload Photos

1,792,345 photos uploaded!

WunderBlogs® & News

Nearby

Air Quality

  Air Quality AQ Index Pollutant
Not available.

Snow Depth

Station Depth Elevation

Earthquake Activity

City Distance Mag. Time & Date
Minimum magnitude displayed is 2.5.

Coastal Water Temperatures

Place Temperature

Nearby Weather Stations